Börgöndi repülõtér

Információk

Albatrosz Repülő Egyesület
8000 Székesfehérvár,
Radványi utca 6.

Adószám:
19092908-2-07

Bankszámla szám:
Budapest Bank
10102952-01361819-00000001

Telefon: +36 30 9598-897

Telephey: Börgönd repülőtér

LHBP METAR/TAF

[source: ADDS]
METAR
TAF LHBP 192300Z 2000/2024 06009KT CAVOK TEMPO 2000/2008 SCT030 BKN100 BECMG 2008/2011 FEW033 BKN043 BECMG 2011/2014 14010KT TEMPO 2012/2019 -SHRA FEW025CB BKN033 BECMG 2017/2020 VRB03KT TEMPO 2019/2024 6000 -RA BKN015 TAF
TAF LHBP 192300Z 2000/2024 06009KT CAVOK TEMPO 2000/2008 SCT030 BKN100 BECMG 2008/2011 FEW033 BKN043 BECMG 2011/2014 14010KT TEMPO 2012/2019 -SHRA FEW025CB BKN033 BECMG 2017/2020 VRB03KT TEMPO 2019/2024 6000 -RA BKN015 =
SR / SS: 03:50 / 17:43 UTC (Börgönd 2014-04-20)
Hungarian Chinese (Simplified) Croatian Czech English Finnish French German Hebrew Italian Japanese Polish Portuguese Romanian Russian Serbian Slovak Slovenian Spanish

Belépés tagoknak